West Lafayette, Ohio
Current Conditions -  °F | °C
As of 9:53 PM on Thursday 18 Dec 2014 (Local Time) from KPHD Reporting Station
Overcast Overcast  
Wind Chill: -2°   Ceiling: 1600
Heat Index: -2°   Visibility: 10mi
Dew Point: -6°   Wind: 3mph
Humidity: 75%   Direction: 270°W
Pressure: 30.18"   Gusts: NA
Location:  40.28°N, 81.75°W
Report Text: KPHD 190253Z AUTO 27003KT 10SM OVC016 M02/M06 A3018 RMK AO2 SLP233 T10171056 55003
Loading
Personal Weather Stations






























Interactive Weather Map New forecast layout! Learn more

10-Day Weather Forecast

Advertisements
Track Severe Weather on mobile